Accueil
METAR-TAF:

METAR-TAF

Aéroports :

Aéroport de Caen - Carpiquet

Caen, France

latitude: 49-11N, longitude: 000-27W, altitude: 78 m

Observation

Le bulletin a été fait il y a 33 minutes, à 02:30 UTC
Vent 6 kt de ouest
Température 12°C
Humidité 100%
Pression 1019 hPa
Visibilité 10 km ou plus
pas de nuages en-dessous de 1500 mètres et pas de cumulonimbus.

METAR: LFRK 170230Z AUTO 28006KT CAVOK 12/12 Q1019

Heure: 05:03 (03:03 UTC)

Prévision

Le bulletin a été fait il y a 8 heures et 48 minutes, à 18:15 UTC
Prévision valable du 16 à 18 UTC au 16 à 24 UTC
Vent 10 kt de ouest/nord-ouest
Visibilité 10 km ou plus
Nuages fragmentés à une hauteur de 2000 ft
Temporairement
du 16 à 18 UTC au 16 à 20 UTC
Visibilité: 2500 m
Nuages fragmentés à une hauteur de 500 ft
Nuages fragmentés à une hauteur de 2000 ft, Cumulonimbus.
pluie

TAF: LFRK 161815Z 1618/1624 29010KT 9999 BKN020 TEMPO 1618/1620 2500 RA BKN005 BKN020CB

Observations et prévisions météorologiques de plus de 4000 aéroports (messages METAR et TAF).

Les stations disponibles sont représentées par des disques jaunes et rouges sur la carte.

Passer la souris dessus pour voir le nom de la station.

Cliquer dessus pour voir les observations et prévisions météorologiques.

Pour changer de carte: cliquez sur les boutons verts avec une croix noire pour zoomer, sur le bouton vert avec un tiret pour effectuer un zoom arrière, ou sur les flèches vertes pour les cartes adjacentes.


METAR-TAF: